Time;durP1;ratioP1;P1;durP2;ratioP2;P2;SDS_P1;SDS_P2;PMS_P1;PMS_P2;Temp;Humidity;BMP_temperature;BMP_pressure;BME280_temperature;BME280_humidity;BME280_pressure;Samples;Min_cycle;Max_cycle;Signal;HPM_P1;HPM_P2
2022/09/16 00:00:28;;;;;;;10.93;6.65;;;;;;;11.90;79.24;98910.41;1697423;84;25682;-65
2022/09/16 00:02:57;;;;;;;13.13;6.85;;;;;;;11.89;79.31;98916.18;1697785;84;25640;-65
2022/09/16 00:05:25;;;;;;;10.10;6.87;;;;;;;11.85;79.42;98917.45;1697629;84;27246;-65
2022/09/16 00:07:52;;;;;;;9.88;6.75;;;;;;;11.84;79.66;98921.86;1697496;84;25698;-65
2022/09/16 00:10:20;;;;;;;11.65;7.55;;;;;;;11.81;79.81;98926.63;1697560;84;25656;-65
2022/09/16 00:12:48;;;;;;;16.57;7.17;;;;;;;11.78;80.10;98930.80;1696409;84;26145;-66
2022/09/16 00:15:16;;;;;;;12.25;7.35;;;;;;;11.76;80.27;98930.38;1678495;84;25764;-66
2022/09/16 00:17:42;;;;;;;10.55;6.85;;;;;;;11.73;80.33;98929.16;1697629;84;27409;-67
2022/09/16 00:20:09;;;;;;;10.72;7.03;;;;;;;11.72;80.55;98922.73;1697498;84;25769;-65
2022/09/16 00:22:36;;;;;;;10.98;7.47;;;;;;;11.71;80.52;98924.67;1697613;84;25585;-66
2022/09/16 00:25:02;;;;;;;9.65;7.17;;;;;;;11.71;80.52;98920.61;1697589;84;25627;-66
2022/09/16 00:27:28;;;;;;;12.75;7.67;;;;;;;11.71;80.73;98916.55;1697644;84;25485;-66
2022/09/16 00:29:55;;;;;;;10.40;6.60;;;;;;;11.72;80.86;98918.67;1697602;84;27332;-66
2022/09/16 00:32:22;;;;;;;11.38;7.58;;;;;;;11.73;80.99;98920.23;1685669;84;25805;-66
2022/09/16 00:34:50;;;;;;;11.18;6.42;;;;;;;11.74;81.08;98913.69;1689220;84;25774;-65
2022/09/16 00:37:17;;;;;;;11.48;6.95;;;;;;;11.75;81.26;98922.05;1697422;84;25776;-65
2022/09/16 00:39:43;;;;;;;9.63;6.42;;;;;;;11.76;81.48;98919.54;1697590;84;25626;-66
2022/09/16 00:42:11;;;;;;;11.70;7.33;;;;;;;11.76;81.48;98917.64;1696353;84;27202;-65
2022/09/16 00:45:01;;;;;;;8.85;6.42;;;;;;;11.77;81.36;98918.41;1675973;84;25725;-65
2022/09/16 00:47:45;;;;;;;16.05;7.28;;;;;;;11.77;81.56;98916.48;1687496;84;26937;-65
2022/09/16 00:50:39;;;;;;;9.73;7.40;;;;;;;11.77;81.59;98923.25;1679155;85;25703;-66
2022/09/16 00:53:11;;;;;;;10.65;6.67;;;;;;;11.77;81.85;98928.67;1680276;85;25617;-65
2022/09/16 00:55:39;;;;;;;13.10;7.20;;;;;;;11.74;81.74;98919.89;1680196;85;27416;-65
2022/09/16 00:58:12;;;;;;;12.20;7.47;;;;;;;11.75;81.69;98926.11;1680204;85;25475;-66
2022/09/16 01:00:39;;;;;;;10.60;7.03;;;;;;;11.73;81.70;98926.45;1679385;85;25414;-65
2022/09/16 01:03:06;;;;;;;10.03;6.40;;;;;;;11.71;81.71;98927.37;1680241;85;27828;-66
2022/09/16 01:05:33;;;;;;;14.50;6.87;;;;;;;11.71;81.58;98931.45;1680317;84;25736;-65
2022/09/16 01:08:01;;;;;;;12.58;7.08;;;;;;;11.68;81.83;98922.66;1652726;85;27340;-66
2022/09/16 01:10:27;;;;;;;15.25;7.17;;;;;;;11.67;82.03;98925.71;1680103;85;25653;-66
2022/09/16 01:13:08;;;;;;;12.50;7.53;;;;;;;11.66;82.05;98917.35;1680245;85;25554;-66
2022/09/16 01:16:00;;;;;;;9.75;6.62;;;;;;;11.66;81.99;98920.06;1680274;85;25547;-65
2022/09/16 01:19:12;;;;;;;9.53;6.40;;;;;;;11.64;82.31;98915.56;1680140;85;25602;-65
2022/09/16 01:22:02;;;;;;;8.68;5.53;;;;;;;11.62;82.43;98927.33;1659856;85;27324;-65
2022/09/16 01:25:02;;;;;;;10.72;5.55;;;;;;;11.63;82.72;98926.98;1678151;85;25908;-65
2022/09/16 01:27:53;;;;;;;8.88;5.85;;;;;;;11.66;82.63;98928.19;1679761;85;25650;-66
2022/09/16 01:30:45;;;;;;;8.15;5.85;;;;;;;11.67;82.44;98920.30;1680072;85;25600;-66
2022/09/16 01:33:37;;;;;;;7.53;5.67;;;;;;;11.69;82.55;98918.80;1677495;85;25641;-66
2022/09/16 01:36:11;;;;;;;8.05;5.40;;;;;;;11.69;82.45;98926.14;1659175;85;27343;-65
2022/09/16 01:39:10;;;;;;;11.88;6.83;;;;;;;11.70;82.55;98928.50;1639860;86;25639;-66
2022/09/16 01:42:04;;;;;;;11.43;6.30;;;;;;;11.72;82.61;98932.22;1639856;87;25590;-66
2022/09/16 01:45:06;;;;;;;8.60;5.78;;;;;;;11.71;82.72;98929.28;1642646;87;25610;-66
2022/09/16 01:47:56;;;;;;;9.73;5.50;;;;;;;11.71;82.67;98922.51;1645215;86;25693;-65
2022/09/16 01:50:52;;;;;;;8.18;5.25;;;;;;;11.71;82.59;98923.31;1648039;87;29533;-65
2022/09/16 01:53:38;;;;;;;9.38;5.35;;;;;;;11.73;82.66;98927.00;1648269;86;25660;-65
2022/09/16 01:56:16;;;;;;;9.65;5.10;;;;;;;11.73;82.65;98933.23;1582739;89;25738;-66
2022/09/16 01:59:08;;;;;;;11.65;5.72;;;;;;;11.75;82.58;98935.59;1590870;89;25752;-66
2022/09/16 02:01:49;;;;;;;6.58;4.80;;;;;;;11.75;82.54;98934.23;1617450;88;25596;-65
2022/09/16 02:04:23;;;;;;;13.00;5.28;;;;;;;11.75;82.46;98935.59;1591816;90;27312;-65
2022/09/16 02:06:53;;;;;;;8.80;4.90;;;;;;;11.77;82.37;98939.51;1591828;90;25704;-65
2022/09/16 02:09:25;;;;;;;8.90;4.95;;;;;;;11.78;82.45;98935.67;1591851;90;25719;-65
2022/09/16 02:11:54;;;;;;;7.70;4.67;;;;;;;11.82;82.54;98928.20;1591844;90;25630;-65
2022/09/16 02:14:26;;;;;;;;;;;;;;;11.84;82.49;98937.55;1594166;90;25625;-66
2022/09/16 02:17:01;;;;;;;9.78;4.35;;;;;;;11.88;82.49;98935.69;1617425;88;27426;-66
2022/09/16 02:19:47;;;;;;;9.93;4.83;;;;;;;11.90;82.40;98942.92;1582346;90;25749;-65
2022/09/16 02:22:29;;;;;;;7.37;4.17;;;;;;;11.93;82.34;98939.52;1600588;88;25512;-65
2022/09/16 02:24:58;;;;;;;9.35;4.50;;;;;;;11.97;82.22;98947.77;1600498;89;25633;-66
2022/09/16 02:27:27;;;;;;;7.75;4.53;;;;;;;12.01;82.26;98955.39;1594105;89;33138;-66
2022/09/16 02:30:01;;;;;;;5.65;3.95;;;;;;;12.05;82.04;98951.41;1615053;88;27419;-66
2022/09/16 02:32:30;;;;;;;6.50;4.08;;;;;;;12.08;81.91;98952.07;1609593;88;25902;-66
2022/09/16 02:34:58;;;;;;;8.35;4.78;;;;;;;12.12;81.71;98940.73;1686161;84;25678;-66
2022/09/16 02:37:48;;;;;;;6.72;3.75;;;;;;;12.16;81.69;98942.97;1683011;85;26007;-66
2022/09/16 02:40:19;;;;;;;6.62;3.62;;;;;;;12.19;81.61;98951.77;1680330;85;25575;-65
2022/09/16 02:42:45;;;;;;;6.35;3.72;;;;;;;12.22;81.31;98952.39;1686060;84;27604;-65
2022/09/16 02:45:12;;;;;;;9.55;3.85;;;;;;;12.25;81.20;98957.11;1685986;85;25487;-65
2022/09/16 02:48:05;;;;;;;10.05;4.35;;;;;;;12.26;80.96;98949.20;1683652;84;25606;-65
2022/09/16 02:50:49;;;;;;;4.22;3.42;;;;;;;12.30;80.83;98947.34;1680271;84;25580;-65
2022/09/16 02:53:34;;;;;;;5.17;3.47;;;;;;;12.32;80.64;98939.64;1663384;85;25585;-65
2022/09/16 02:56:09;;;;;;;8.75;3.65;;;;;;;12.34;80.51;98943.36;1680449;84;27301;-66
2022/09/16 02:58:35;;;;;;;8.50;3.40;;;;;;;12.35;80.35;98949.01;1658206;84;25582;-66
2022/09/16 03:01:02;;;;;;;6.40;3.00;;;;;;;12.36;80.30;98947.08;1671639;85;29586;-65
2022/09/16 03:03:28;;;;;;;6.05;3.62;;;;;;;12.35;80.21;98943.59;1654106;85;25615;-66
2022/09/16 03:06:18;;;;;;;6.12;3.10;;;;;;;12.37;80.13;98946.73;1680349;85;25751;-66
2022/09/16 03:08:46;;;;;;;6.15;3.33;;;;;;;12.38;80.10;98951.57;1680365;85;27336;-65
2022/09/16 03:11:36;;;;;;;7.42;3.70;;;;;;;12.37;80.11;98939.95;1680191;85;25585;-65
2022/09/16 03:14:28;;;;;;;7.65;3.65;;;;;;;12.39;80.04;98936.89;1680306;85;25530;-66
2022/09/16 03:17:43;;;;;;;6.85;3.62;;;;;;;12.36;80.03;98938.39;1661191;85;26389;-65
2022/09/16 03:20:54;;;;;;;6.50;3.33;;;;;;;12.37;80.01;98933.17;1680331;84;25592;-65
2022/09/16 03:23:46;;;;;;;5.75;3.67;;;;;;;12.39;80.09;98944.44;1680273;85;29497;-65
2022/09/16 03:26:30;;;;;;;8.68;3.80;;;;;;;12.38;79.97;98942.89;1680297;85;25396;-65
2022/09/16 03:29:11;;;;;;;10.35;3.87;;;;;;;12.39;79.96;98942.31;1670435;85;25669;-65
2022/09/16 03:31:46;;;;;;;5.33;3.90;;;;;;;12.40;80.05;98952.80;1680227;85;25732;-65
2022/09/16 03:34:20;;;;;;;8.28;3.67;;;;;;;12.40;79.96;98947.38;1680291;85;25403;-65
2022/09/16 03:36:57;;;;;;;8.93;4.15;;;;;;;12.40;79.84;98948.73;1680229;85;27413;-65
2022/09/16 03:39:24;;;;;;;5.03;3.45;;;;;;;12.41;79.81;98948.97;1671489;85;25739;-66
2022/09/16 03:41:51;;;;;;;6.85;3.90;;;;;;;12.38;79.74;98947.50;1669017;85;25419;-64
2022/09/16 03:44:17;;;;;;;9.60;3.92;;;;;;;12.39;79.87;98953.16;1652536;85;25703;-65
2022/09/16 03:46:43;;;;;;;8.58;3.60;;;;;;;12.36;79.62;98953.31;1680316;84;25671;-67
2022/09/16 03:49:10;;;;;;;9.08;3.77;;;;;;;12.32;79.60;98955.91;1680199;84;27394;-64
2022/09/16 03:51:36;;;;;;;8.08;3.90;;;;;;;12.31;79.51;98963.06;1680176;85;25599;-67
2022/09/16 03:54:02;;;;;;;9.90;4.20;;;;;;;12.29;79.46;98960.70;1680258;84;25435;-67
2022/09/16 03:56:28;;;;;;;6.30;3.77;;;;;;;12.25;79.54;98958.47;1680174;85;25684;-65
2022/09/16 03:58:54;;;;;;;7.05;3.95;;;;;;;12.20;79.44;98962.80;1680264;85;25480;-64
2022/09/16 04:01:21;;;;;;;8.18;4.25;;;;;;;12.15;79.56;98962.50;1680205;85;27383;-65
2022/09/16 04:03:47;;;;;;;6.97;3.87;;;;;;;12.12;79.67;98963.22;1680119;84;25621;-64
2022/09/16 04:06:14;;;;;;;9.83;4.62;;;;;;;12.10;79.74;98966.05;1680232;85;25465;-65
2022/09/16 04:08:43;;;;;;;8.40;4.50;;;;;;;12.05;79.79;98965.74;1680186;84;25610;-65
2022/09/16 04:11:08;;;;;;;6.87;4.33;;;;;;;12.01;80.11;98966.23;1680186;85;25559;-65
2022/09/16 04:13:35;;;;;;;7.55;4.25;;;;;;;11.96;79.99;98965.92;1680209;85;27340;-65
2022/09/16 04:16:04;;;;;;;5.20;4.33;;;;;;;11.97;80.16;98968.09;1680132;85;26112;-66
2022/09/16 04:18:32;;;;;;;9.40;3.92;;;;;;;11.94;80.09;98975.55;1680174;84;25473;-65
2022/09/16 04:21:01;;;;;;;5.97;3.95;;;;;;;11.90;80.14;98974.63;1680257;85;26147;-65
2022/09/16 04:23:30;;;;;;;6.05;4.22;;;;;;;11.86;80.26;98974.55;1680155;85;25672;-65
2022/09/16 04:25:59;;;;;;;7.75;4.67;;;;;;;11.85;80.33;98982.48;1680375;85;27419;-65
2022/09/16 04:28:29;;;;;;;6.05;3.70;;;;;;;11.82;80.40;98975.62;1680170;85;25403;-65
2022/09/16 04:31:01;;;;;;;7.10;4.40;;;;;;;11.81;80.70;98978.09;1680242;85;25456;-65
2022/09/16 04:33:31;;;;;;;8.85;3.83;;;;;;;11.78;80.84;98972.24;1680220;84;25606;-65
2022/09/16 04:36:15;;;;;;;6.45;4.33;;;;;;;11.77;80.76;98976.66;1680209;84;25575;-65
2022/09/16 04:38:44;;;;;;;7.70;4.17;;;;;;;11.75;81.12;98972.16;1668939;85;29479;-65
2022/09/16 04:41:15;;;;;;;8.33;4.67;;;;;;;11.75;80.88;98973.52;1680341;85;25625;-65
2022/09/16 04:43:41;;;;;;;9.75;5.92;;;;;;;11.74;80.99;98971.35;1679954;85;25554;-66
2022/09/16 04:46:08;;;;;;;12.55;4.58;;;;;;;11.75;80.94;98981.06;1680191;85;27898;-65
2022/09/16 04:48:34;;;;;;;8.03;4.58;;;;;;;11.76;81.08;98985.36;1680187;84;25541;-66
2022/09/16 04:51:11;;;;;;;5.50;4.40;;;;;;;11.77;81.07;98985.56;1680242;84;27336;-66
2022/09/16 04:53:40;;;;;;;10.45;4.90;;;;;;;11.77;81.28;98991.55;1680153;85;25696;-66
2022/09/16 04:56:14;;;;;;;5.50;4.97;;;;;;;11.75;81.33;98993.25;1680375;85;25596;-65
2022/09/16 04:58:38;;;;;;;6.97;4.75;;;;;;;11.77;81.34;98988.84;1679871;85;26279;-65
2022/09/16 05:01:11;;;;;;;8.85;5.58;;;;;;;11.77;81.29;98990.20;1680308;84;32706;-65
2022/09/16 05:03:44;;;;;;;7.60;4.97;;;;;;;11.78;81.74;98990.40;1680304;85;27137;-65
2022/09/16 05:06:18;;;;;;;7.65;5.25;;;;;;;11.80;81.54;98997.63;1680137;85;25494;-65
2022/09/16 05:08:44;;;;;;;9.18;5.15;;;;;;;11.85;81.78;99000.09;1680278;85;25471;-64
2022/09/16 05:11:15;;;;;;;12.10;5.30;;;;;;;11.87;81.72;98995.09;1680255;85;25697;-66
2022/09/16 05:13:42;;;;;;;7.42;5.28;;;;;;;11.90;81.86;98996.31;1680331;85;25468;-66
2022/09/16 05:16:12;;;;;;;7.10;4.83;;;;;;;11.91;81.64;98990.57;1659669;85;27669;-66
2022/09/16 05:18:40;;;;;;;9.03;5.08;;;;;;;11.94;81.64;98991.23;1680077;85;25605;-66
2022/09/16 05:21:11;;;;;;;6.70;4.30;;;;;;;11.96;81.49;98989.53;1660690;85;25714;-66
2022/09/16 05:23:39;;;;;;;9.23;4.70;;;;;;;11.99;81.43;99000.25;1680303;85;25738;-66
2022/09/16 05:26:11;;;;;;;9.57;6.20;;;;;;;12.00;81.37;98995.04;1680567;84;25598;-66
2022/09/16 05:28:39;;;;;;;7.92;4.67;;;;;;;12.02;81.43;99002.24;1680341;85;27341;-65
2022/09/16 05:31:19;;;;;;;11.00;5.00;;;;;;;12.06;81.46;99001.78;1680345;85;25808;-66
2022/09/16 05:33:58;;;;;;;7.90;4.50;;;;;;;12.08;81.32;98994.08;1680409;85;25648;-64
2022/09/16 05:36:27;;;;;;;9.15;4.80;;;;;;;12.11;81.43;99003.65;1680334;85;25718;-65
2022/09/16 05:38:54;;;;;;;10.08;4.60;;;;;;;12.18;81.40;99003.61;1661426;85;25399;-65
2022/09/16 05:41:20;;;;;;;6.12;4.30;;;;;;;12.19;81.07;99000.55;1680412;84;28126;-65
2022/09/16 05:43:46;;;;;;;10.30;5.30;;;;;;;12.24;81.15;99002.19;1680249;85;25698;-65
2022/09/16 05:46:20;;;;;;;9.60;4.33;;;;;;;12.27;80.94;99006.34;1677046;85;25812;-65
2022/09/16 05:48:47;;;;;;;7.20;4.12;;;;;;;12.28;80.63;99006.56;1687115;83;25681;-65
2022/09/16 05:51:20;;;;;;;7.83;4.62;;;;;;;12.32;80.62;99005.30;1664064;86;25230;-65
2022/09/16 05:53:48;;;;;;;10.05;4.50;;;;;;;12.34;80.30;99013.85;1636472;87;27372;-66
2022/09/16 05:56:20;;;;;;;8.60;3.65;;;;;;;12.36;80.10;99007.53;1647297;87;25637;-65
2022/09/16 05:58:47;;;;;;;10.82;4.33;;;;;;;12.42;80.28;99007.47;1663330;86;25472;-66
2022/09/16 06:01:17;;;;;;;7.97;4.03;;;;;;;12.53;80.27;99002.27;1663229;86;26125;-65
2022/09/16 06:03:46;;;;;;;6.92;4.00;;;;;;;12.63;80.24;99009.08;1662955;86;25703;-66
2022/09/16 06:06:32;;;;;;;6.45;3.72;;;;;;;12.71;79.81;99013.53;1648484;87;27422;-66
2022/09/16 06:09:06;;;;;;;6.62;4.00;;;;;;;12.78;79.48;99005.55;1646137;87;25672;-65
2022/09/16 06:11:40;;;;;;;15.03;4.35;;;;;;;12.93;79.73;99001.21;1648905;87;25678;-65
2022/09/16 06:14:07;;;;;;;7.33;3.70;;;;;;;13.00;78.99;98999.22;1649012;87;25782;-65
2022/09/16 06:16:34;;;;;;;6.67;4.03;;;;;;;13.09;78.72;98994.35;1647929;87;25597;-65
2022/09/16 06:19:05;;;;;;;6.03;3.70;;;;;;;13.17;78.23;99002.08;1657877;86;27320;-65
2022/09/16 06:21:32;;;;;;;5.60;3.62;;;;;;;13.23;77.99;98991.94;1655267;86;25574;-65
2022/09/16 06:23:58;;;;;;;7.70;3.70;;;;;;;13.37;77.70;98994.17;1634741;86;25432;-65
2022/09/16 06:26:26;;;;;;;6.83;3.62;;;;;;;13.53;78.78;98984.55;1634009;86;26470;-65
2022/09/16 06:28:54;;;;;;;8.30;3.58;;;;;;;13.77;78.28;98992.16;1651117;86;25717;-65
2022/09/16 06:31:24;;;;;;;4.97;3.67;;;;;;;13.93;77.13;98998.27;1651497;86;28092;-65
2022/09/16 06:33:52;;;;;;;6.87;4.03;;;;;;;13.99;76.64;98996.02;1658218;86;25769;-65
2022/09/16 06:36:22;;;;;;;9.20;3.70;;;;;;;14.08;76.17;98999.84;1657842;86;25613;-65
2022/09/16 06:38:48;;;;;;;;;;;;;;;14.19;76.00;99005.67;1660360;86;25921;-66
2022/09/16 06:41:17;;;;;;;13.22;4.12;;;;;;;14.29;74.44;99008.36;1658429;86;25520;-65
2022/09/16 06:43:44;;;;;;;7.33;3.72;;;;;;;14.28;73.81;99004.64;1658470;86;27337;-66
2022/09/16 06:46:15;;;;;;;9.40;4.15;;;;;;;14.28;74.32;99007.36;1658488;86;25462;-65
2022/09/16 06:48:44;;;;;;;8.03;3.52;;;;;;;14.29;73.42;99007.00;1660648;86;25573;-64
2022/09/16 06:51:17;;;;;;;7.33;3.50;;;;;;;14.24;73.35;99004.59;1666253;86;25618;-66
2022/09/16 06:53:45;;;;;;;6.50;3.70;;;;;;;14.22;72.95;98996.02;1666207;86;25577;-64
2022/09/16 06:56:16;;;;;;;6.53;3.22;;;;;;;14.21;73.20;98999.88;1666144;86;27364;-66
2022/09/16 06:58:49;;;;;;;9.53;3.45;;;;;;;14.23;73.60;98990.77;1665968;86;25601;-64
2022/09/16 07:01:21;;;;;;;6.40;3.90;;;;;;;14.43;73.28;98996.91;1666189;86;25558;-64
2022/09/16 07:03:50;;;;;;;5.40;3.33;;;;;;;14.49;72.72;99006.33;1666012;86;25629;-66
2022/09/16 07:06:18;;;;;;;;;;;;;;;14.66;73.31;99002.33;1668471;86;25400;-66
2022/09/16 07:08:45;;;;;;;13.40;3.47;;;;;;;15.05;74.88;99008.87;1661741;86;26964;-66
2022/09/16 07:11:20;;;;;;;5.67;2.65;;;;;;;15.50;73.84;99011.70;1651264;86;25716;-64
2022/09/16 07:13:49;;;;;;;7.45;2.77;;;;;;;15.78;71.95;99009.09;1659363;85;25651;-65
2022/09/16 07:16:20;;;;;;;4.60;2.77;;;;;;;15.96;70.47;99006.53;1665935;86;25639;-64
2022/09/16 07:18:47;;;;;;;8.03;2.52;;;;;;;16.16;68.97;99007.10;1664301;85;25650;-64
2022/09/16 07:21:17;;;;;;;6.58;2.65;;;;;;;16.27;68.63;99009.90;1692185;84;27308;-65
2022/09/16 07:23:45;;;;;;;5.50;2.42;;;;;;;16.41;67.82;99022.27;1633184;86;26310;-65
2022/09/16 07:26:19;;;;;;;3.98;2.22;;;;;;;16.64;69.44;99013.08;1643908;85;25696;-65
2022/09/16 07:28:47;;;;;;;7.33;2.65;;;;;;;16.92;67.87;99010.52;1641734;85;25697;-64
2022/09/16 07:31:20;;;;;;;7.95;2.30;;;;;;;17.20;66.70;99006.36;1641551;85;25855;-65
2022/09/16 07:33:49;;;;;;;5.75;2.10;;;;;;;17.51;67.31;99006.84;1648055;85;27997;-64
2022/09/16 07:36:20;;;;;;;8.07;2.00;;;;;;;18.05;67.31;99008.32;1662357;85;25633;-64
2022/09/16 07:38:50;;;;;;;4.22;1.90;;;;;;;18.31;64.90;99015.94;1642125;87;25454;-65
2022/09/16 07:41:20;;;;;;;4.90;1.80;;;;;;;18.54;64.69;99013.56;1697782;84;25816;-65
2022/09/16 07:43:48;;;;;;;5.28;1.80;;;;;;;18.90;61.85;99016.81;1682014;84;25668;-65
2022/09/16 07:46:18;;;;;;;7.85;1.80;;;;;;;18.99;59.84;99018.56;1695928;84;28260;-65
2022/09/16 07:48:47;;;;;;;5.53;1.62;;;;;;;18.74;58.38;99012.53;1691506;84;27206;-65
2022/09/16 07:51:22;;;;;;;6.78;2.12;;;;;;;18.49;57.77;99018.08;1668407;85;25443;-66
2022/09/16 07:53:59;;;;;;;3.83;1.32;;;;;;;18.70;59.25;99015.88;1644123;85;25639;-65
2022/09/16 07:56:33;;;;;;;5.00;1.80;;;;;;;18.78;55.34;99025.64;1678213;85;25744;-66
2022/09/16 07:59:01;;;;;;;6.30;1.62;;;;;;;18.88;57.44;99017.81;1670292;85;27330;-66
2022/09/16 08:01:29;;;;;;;8.20;1.85;;;;;;;19.17;57.13;99013.80;1675473;85;25432;-65
2022/09/16 08:03:58;;;;;;;3.40;1.20;;;;;;;19.55;57.55;99018.11;1615884;88;25710;-66
2022/09/16 08:06:28;;;;;;;5.43;1.20;;;;;;;19.82;56.01;99025.02;1590602;88;25639;-66
2022/09/16 08:08:58;;;;;;;6.85;1.42;;;;;;;20.00;55.02;99019.42;1663507;85;25742;-65
2022/09/16 08:11:27;;;;;;;8.33;1.90;;;;;;;20.41;54.95;99029.06;1640067;87;26821;-65
2022/09/16 08:13:53;;;;;;;5.05;1.65;;;;;;;20.65;53.82;99036.13;1671378;85;25407;-65
2022/09/16 08:16:21;;;;;;;3.98;1.52;;;;;;;20.73;51.50;99021.14;1672561;85;25712;-65
2022/09/16 08:18:53;;;;;;;8.28;1.72;;;;;;;20.57;49.83;99027.17;1615210;87;25998;-65
2022/09/16 08:21:28;;;;;;;7.95;1.50;;;;;;;20.20;50.58;99036.91;1630675;86;25714;-66
2022/09/16 08:23:56;;;;;;;4.58;1.30;;;;;;;20.17;49.95;99025.95;1630533;87;27427;-66
2022/09/16 08:26:23;;;;;;;6.20;1.25;;;;;;;20.02;49.48;99033.52;1679296;85;25663;-65
2022/09/16 08:28:50;;;;;;;5.08;1.32;;;;;;;20.12;49.75;99014.81;1605868;87;25733;-65
2022/09/16 08:31:18;;;;;;;6.45;1.32;;;;;;;20.11;49.23;99030.50;1607524;87;26624;-65
2022/09/16 08:33:45;;;;;;;7.30;1.70;;;;;;;20.31;49.30;99020.33;1622582;87;25765;-65
2022/09/16 08:36:19;;;;;;;7.22;1.37;;;;;;;20.48;48.21;99023.53;1624703;86;27335;-66
2022/09/16 08:38:49;;;;;;;7.15;1.37;;;;;;;20.62;48.29;99031.42;1612821;88;25814;-66
2022/09/16 08:41:37;;;;;;;;;;;;;;;20.56;46.34;99024.83;1682150;85;25791;-67
2022/09/16 08:44:38;;;;;;;7.05;1.27;;;;;;;20.37;47.42;99021.47;1678960;85;25694;-66
2022/09/16 08:47:10;;;;;;;4.42;0.98;;;;;;;19.92;46.27;99011.25;1676150;84;25608;-65
2022/09/16 08:49:46;;;;;;;9.60;1.70;;;;;;;19.78;48.64;99015.45;1671363;84;27316;-62
2022/09/16 08:52:35;;;;;;;6.08;1.10;;;;;;;20.41;49.53;99015.33;1679193;84;25732;-62
2022/09/16 08:55:12;;;;;;;4.80;1.22;;;;;;;20.89;48.52;99003.50;1679643;84;25781;-63
2022/09/16 08:57:46;;;;;;;5.67;1.27;;;;;;;20.66;47.28;99021.22;1674574;85;25713;-63
2022/09/16 09:00:18;;;;;;;10.40;1.62;;;;;;;20.49;46.34;99012.71;1666894;85;25726;-71
2022/09/16 09:03:00;;;;;;;7.35;1.37;;;;;;;20.42;45.82;99022.39;1679846;84;27417;-71
2022/09/16 09:05:44;;;;;;;6.40;1.22;;;;;;;20.10;45.67;99017.95;1668417;84;25759;-68
2022/09/16 09:08:27;;;;;;;7.20;1.57;;;;;;;19.77;45.81;99020.16;1651251;85;25729;-70
2022/09/16 09:11:22;;;;;;;5.97;1.20;;;;;;;19.44;45.79;99007.78;1676720;85;25806;-70
2022/09/16 09:14:03;;;;;;;2.80;0.90;;;;;;;19.13;46.10;99023.98;1674718;85;25696;-71
2022/09/16 09:17:22;;;;;;;4.08;1.05;;;;;;;18.85;46.68;99020.17;1616221;87;27349;-71
2022/09/16 09:20:10;;;;;;;5.55;1.20;;;;;;;18.63;47.23;99020.00;1636011;87;25725;-70
2022/09/16 09:23:13;;;;;;;6.78;1.40;;;;;;;18.47;47.59;99019.03;1635396;87;25448;-70
2022/09/16 09:25:54;;;;;;;8.80;1.27;;;;;;;18.27;47.45;99015.94;1636639;87;25701;-71
2022/09/16 09:28:56;;;;;;;4.50;1.30;;;;;;;18.04;47.87;99018.46;1635078;87;25651;-71
2022/09/16 09:31:31;;;;;;;4.50;1.20;;;;;;;18.03;47.65;99017.48;1635562;87;27497;-69
2022/09/16 09:34:17;;;;;;;4.87;1.05;;;;;;;18.00;48.18;99024.53;1613321;87;25477;-70
2022/09/16 09:36:58;;;;;;;5.12;1.20;;;;;;;17.88;48.22;99027.65;1635442;87;26495;-72
2022/09/16 09:39:51;;;;;;;5.95;1.27;;;;;;;17.78;47.97;99027.80;1608138;87;25676;-71
2022/09/16 09:42:38;;;;;;;8.95;1.65;;;;;;;17.65;48.12;99031.47;1612270;88;25547;-70
2022/09/16 09:45:24;;;;;;;4.87;1.30;;;;;;;17.58;49.42;99026.58;1618996;87;27277;-71
2022/09/16 09:48:22;;;;;;;5.40;1.52;;;;;;;17.62;49.54;99025.43;1647592;87;25705;-71
2022/09/16 09:50:50;;;;;;;6.15;1.10;;;;;;;17.60;48.91;99028.34;1658709;85;25744;-71
2022/09/16 09:53:31;;;;;;;4.62;1.20;;;;;;;17.88;50.40;99027.65;1654545;86;25712;-72
2022/09/16 09:56:09;;;;;;;4.47;1.45;;;;;;;18.63;50.50;99031.73;1649357;85;25927;-72
2022/09/16 09:58:49;;;;;;;5.83;1.17;;;;;;;19.45;50.39;99025.03;1653584;86;27463;-71
2022/09/16 10:01:17;;;;;;;5.95;1.35;;;;;;;20.55;48.66;99025.43;1653651;86;25618;-70
2022/09/16 10:03:44;;;;;;;1.95;1.02;;;;;;;20.45;44.42;99034.52;1654244;86;25765;-71
2022/09/16 10:06:11;;;;;;;4.22;1.40;;;;;;;20.02;44.99;99026.05;1654458;85;25679;-70
2022/09/16 10:08:48;;;;;;;5.05;1.02;;;;;;;19.71;44.00;99022.33;1643658;86;25530;-71
2022/09/16 10:11:24;;;;;;;6.25;1.42;;;;;;;20.10;46.92;99025.41;1651581;86;27554;-71
2022/09/16 10:13:58;;;;;;;3.70;1.02;;;;;;;20.57;46.74;99014.81;1634613;87;25769;-71
2022/09/16 10:16:30;;;;;;;5.33;1.02;;;;;;;21.33;46.34;99026.34;1607875;87;25493;-69
2022/09/16 10:19:01;;;;;;;7.87;1.10;;;;;;;21.71;45.16;99020.73;1675918;85;27766;-69
2022/09/16 10:21:41;;;;;;;4.53;1.10;;;;;;;21.63;43.62;99031.85;1652308;85;25555;-67
2022/09/16 10:24:34;;;;;;;6.12;1.10;;;;;;;21.30;43.69;99016.16;1654383;86;27403;-74
2022/09/16 10:27:09;;;;;;;6.10;1.20;;;;;;;20.99;43.45;99034.02;1679917;84;26435;-74
2022/09/16 10:29:33;;;;;;;7.08;1.17;;;;;;;20.25;43.54;99030.98;1658415;84;25761;-74
2022/09/16 10:32:05;;;;;;;5.87;1.45;;;;;;;19.74;44.95;99018.78;1672726;84;25723;-75
2022/09/16 10:34:38;;;;;;;6.55;1.70;;;;;;;19.36;45.13;99026.24;1677527;84;25730;-73
2022/09/16 10:37:14;;;;;;;3.52;1.10;;;;;;;18.97;45.81;99034.63;1670749;84;27982;-74
2022/09/16 10:39:43;;;;;;;7.97;1.02;;;;;;;18.46;45.88;99028.44;1686494;84;25701;-69
2022/09/16 10:42:25;;;;;;;8.38;1.82;;;;;;;18.06;46.92;99037.23;1673769;84;25726;-69
2022/09/16 10:44:56;;;;;;;5.60;1.05;;;;;;;17.81;47.74;99035.80;1637994;86;25645;-67
2022/09/16 10:47:27;;;;;;;9.73;2.08;;;;;;;17.72;48.38;99026.60;1665135;84;25421;-69
2022/09/16 10:50:00;;;;;;;6.35;1.57;;;;;;;17.79;49.34;99034.03;1636155;86;27299;-68
2022/09/16 10:52:30;;;;;;;7.33;2.22;;;;;;;17.78;49.03;99029.75;1693501;84;25974;-70
2022/09/16 10:55:00;;;;;;;5.28;1.62;;;;;;;17.69;49.05;99026.81;1633897;86;25774;-69
2022/09/16 10:57:30;;;;;;;6.67;1.42;;;;;;;17.65;49.82;99017.02;1645712;87;25629;-68
2022/09/16 11:00:20;;;;;;;5.78;1.55;;;;;;;17.67;49.93;99021.52;1619827;86;25780;-66
2022/09/16 11:03:13;;;;;;;7.47;1.30;;;;;;;17.73;50.34;99022.11;1644093;87;27419;-68
2022/09/16 11:06:17;;;;;;;6.70;1.77;;;;;;;17.77;50.05;99025.45;1645385;87;25807;-68
2022/09/16 11:09:08;;;;;;;10.63;2.30;;;;;;;17.65;49.88;99023.27;1644582;87;25728;-68
2022/09/16 11:12:23;;;;;;;8.05;2.20;;;;;;;17.57;50.21;99018.97;1642729;86;25644;-69
2022/09/16 11:15:04;;;;;;;13.10;1.75;;;;;;;17.96;52.93;99020.22;1652901;86;25749;-68
2022/09/16 11:18:04;;;;;;;4.87;1.35;;;;;;;18.91;51.92;99030.72;1658359;86;27466;-69
2022/09/16 11:20:59;;;;;;;5.28;1.62;;;;;;;19.53;50.80;99016.36;1637258;87;25945;-68
2022/09/16 11:26:44;;;;;;;3.35;1.45;;;;;;;21.42;48.55;99010.13;1593335;90;25827;-70
2022/09/16 11:29:46;;;;;;;9.50;1.32;;;;;;;22.25;48.67;98999.25;1588188;89;25815;-68
2022/09/16 11:32:50;;;;;;;2.98;0.78;;;;;;;23.04;47.22;99006.88;1591904;90;27664;-69
2022/09/16 11:36:04;;;;;;;3.08;0.70;;;;;;;23.09;42.68;98993.99;1620474;87;25751;-68
2022/09/16 11:38:57;;;;;;;4.37;1.00;;;;;;;22.83;40.32;98990.75;1606343;88;25841;-70
2022/09/16 11:41:56;;;;;;;1.82;0.65;;;;;;;22.86;41.26;98992.05;1614983;88;27859;-69
2022/09/16 11:44:34;;;;;;;8.53;0.90;;;;;;;23.01;40.88;98989.80;1661970;85;26035;-68
2022/09/16 11:47:36;;;;;;;2.90;0.90;;;;;;;23.16;41.27;98985.41;1661157;85;28363;-69
2022/09/16 11:50:35;;;;;;;5.83;1.00;;;;;;;23.75;42.14;98983.69;1604017;89;25890;-69
2022/09/16 11:53:26;;;;;;;;;;;;;;;24.17;41.14;98976.37;1672700;85;25698;-68
2022/09/16 11:56:24;;;;;;;4.15;1.02;;;;;;;24.11;38.65;98982.27;1630221;86;25739;-67
2022/09/16 11:58:59;;;;;;;2.95;1.20;;;;;;;23.45;37.69;98986.94;1625969;86;25801;-66
2022/09/16 12:01:33;;;;;;;8.33;1.12;;;;;;;22.80;38.37;98986.87;1634965;86;27537;-66
2022/09/16 12:04:17;;;;;;;11.53;1.20;;;;;;;22.19;38.64;98986.58;1629372;86;26182;-66
2022/09/16 12:07:12;;;;;;;3.35;1.22;;;;;;;22.04;38.52;98985.26;1568354;90;25702;-67
2022/09/16 12:10:04;;;;;;;3.12;0.88;;;;;;;22.30;39.12;98994.67;1585407;89;25977;-66
2022/09/16 12:13:00;;;;;;;5.22;1.12;;;;;;;22.56;38.14;98987.53;1552318;90;25591;-68
2022/09/16 12:15:32;;;;;;;2.02;0.62;;;;;;;22.81;38.01;98988.41;1582267;89;27169;-68
2022/09/16 12:18:16;;;;;;;2.92;0.95;;;;;;;22.52;36.78;99005.48;1638890;86;25874;-71